Time;durP1;ratioP1;P1;durP2;ratioP2;P2;SDS_P1;SDS_P2;PMS_P1;PMS_P2;Temp;Humidity;BMP_temperature;BMP_pressure;BME280_temperature;BME280_humidity;BME280_pressure;Samples;Min_cycle;Max_cycle;Signal;HPM_P1;HPM_P2
2022/12/13 00:01:29;;;;;;;89.10;58.17;;;-1.00;99.90;;;;;;5033452;28;20026;-72
2022/12/13 00:03:57;;;;;;;88.78;56.60;;;-1.10;99.90;;;;;;5017630;28;20033;-73
2022/12/13 00:06:24;;;;;;;95.63;58.17;;;-1.00;99.90;;;;;;5013785;28;20037;-72
2022/12/13 00:08:50;;;;;;;96.45;62.90;;;-1.10;99.90;;;;;;5013831;28;20022;-73
2022/12/13 00:11:16;;;;;;;101.68;58.95;;;-1.20;99.90;;;;;;5013694;28;20469;-74
2022/12/13 00:13:42;;;;;;;90.05;57.10;;;-1.20;99.90;;;;;;5029447;28;20121;-73
2022/12/13 00:16:14;;;;;;;87.45;56.75;;;-1.30;99.90;;;;;;5018650;28;20033;-71
2022/12/13 00:18:40;;;;;;;88.38;55.55;;;-1.20;99.90;;;;;;5013568;28;20033;-72
2022/12/13 00:21:10;;;;;;;89.63;59.70;;;-1.20;99.90;;;;;;5030703;28;20026;-73
2022/12/13 00:23:36;;;;;;;114.63;70.65;;;-1.20;99.90;;;;;;5033516;28;20036;-74
2022/12/13 00:26:07;;;;;;;117.15;74.30;;;-1.20;99.90;;;;;;5033067;28;20021;-74
2022/12/13 00:28:33;;;;;;;93.13;63.80;;;-1.10;99.90;;;;;;5014008;28;20030;-73
2022/12/13 00:30:59;;;;;;;116.57;74.15;;;-1.10;99.90;;;;;;5013924;28;20072;-73
2022/12/13 00:33:26;;;;;;;134.82;82.68;;;-1.10;99.90;;;;;;5013872;28;20044;-73
2022/12/13 00:35:53;;;;;;;119.15;76.82;;;-1.10;99.90;;;;;;5013917;28;20054;-74
2022/12/13 00:38:19;;;;;;;124.18;80.65;;;-1.10;99.90;;;;;;5025612;28;20026;-73
2022/12/13 00:40:44;;;;;;;106.85;71.80;;;-1.10;99.90;;;;;;5025020;28;20045;-73
2022/12/13 00:43:10;;;;;;;139.27;91.68;;;-1.20;99.90;;;;;;5042397;28;20029;-73
2022/12/13 00:45:37;;;;;;;158.88;101.40;;;-1.40;99.90;;;;;;5024772;28;20395;-74
2022/12/13 00:48:04;;;;;;;199.90;132.80;;;-1.60;99.90;;;;;;5035900;28;20045;-73
2022/12/13 00:50:30;;;;;;;189.50;120.97;;;-1.60;99.90;;;;;;5016740;28;20063;-73
2022/12/13 00:52:58;;;;;;;173.15;110.70;;;-1.60;99.90;;;;;;5035789;28;20054;-76
2022/12/13 00:55:24;;;;;;;161.05;105.55;;;-1.60;99.90;;;;;;5023163;28;20030;-73
2022/12/13 00:57:51;;;;;;;151.68;98.78;;;-1.60;99.90;;;;;;5031804;28;20018;-73
2022/12/13 01:00:17;;;;;;;143.00;94.78;;;-1.60;99.90;;;;;;5032134;28;20024;-76
2022/12/13 01:02:43;;;;;;;145.77;88.45;;;-1.60;99.90;;;;;;5031226;28;20381;-76
2022/12/13 01:05:11;;;;;;;140.75;91.03;;;-1.70;99.90;;;;;;5015437;28;20026;-71
2022/12/13 01:07:37;;;;;;;137.75;88.55;;;-1.70;99.90;;;;;;5021570;28;20026;-75
2022/12/13 01:10:06;;;;;;;129.07;89.15;;;-1.70;99.90;;;;;;5016005;28;20057;-75
2022/12/13 01:12:32;;;;;;;140.88;87.07;;;-1.80;99.90;;;;;;5026383;28;20029;-72
2022/12/13 01:14:59;;;;;;;143.63;91.38;;;-1.70;99.90;;;;;;5033511;28;20520;-72
2022/12/13 01:17:25;;;;;;;145.70;92.53;;;-1.70;99.90;;;;;;5032638;28;20033;-75
2022/12/13 01:19:51;;;;;;;135.85;87.35;;;-1.70;99.90;;;;;;5032439;28;20053;-73
2022/12/13 01:22:17;;;;;;;135.05;87.18;;;-1.70;99.90;;;;;;5032381;28;20436;-72
2022/12/13 01:24:43;;;;;;;132.63;85.68;;;-1.70;99.90;;;;;;5032641;28;20022;-75
2022/12/13 01:27:09;;;;;;;126.53;78.40;;;-1.70;99.90;;;;;;5016801;28;20045;-72
2022/12/13 01:29:36;;;;;;;123.00;79.97;;;-1.70;99.90;;;;;;5012114;28;20488;-75
2022/12/13 01:32:02;;;;;;;119.93;78.65;;;-1.70;99.90;;;;;;5029294;28;20080;-74
2022/12/13 01:34:28;;;;;;;112.82;68.93;;;-1.70;99.90;;;;;;5012419;28;20394;-74
2022/12/13 01:36:55;;;;;;;108.18;71.30;;;-1.80;99.90;;;;;;5020303;28;20029;-75
2022/12/13 01:39:21;;;;;;;104.22;69.75;;;-1.80;99.90;;;;;;5031814;28;20523;-71
2022/12/13 01:41:50;;;;;;;97.68;65.07;;;-1.80;99.90;;;;;;5019687;28;20040;-72
2022/12/13 01:45:05;;;;;;;104.07;66.30;;;-1.80;99.90;;;;;;5016026;28;20041;-72
2022/12/13 01:47:42;;;;;;;93.57;60.88;;;-1.70;99.90;;;;;;5054153;28;20137;-71
2022/12/13 01:50:15;;;;;;;89.60;58.75;;;-1.70;99.90;;;;;;5053425;28;20460;-71
2022/12/13 01:52:43;;;;;;;85.97;54.22;;;-1.80;99.90;;;;;;5053264;28;20040;-71
2022/12/13 01:55:11;;;;;;;87.50;54.50;;;-1.80;99.90;;;;;;5059159;28;20025;-74
2022/12/13 01:57:41;;;;;;;91.18;58.60;;;-1.80;99.90;;;;;;5057522;28;20128;-71
2022/12/13 02:00:09;;;;;;;93.60;59.33;;;-1.80;99.90;;;;;;5053498;28;20029;-75
2022/12/13 02:02:36;;;;;;;82.78;54.63;;;-1.90;99.90;;;;;;5057417;28;20065;-73
2022/12/13 02:05:31;;;;;;;85.10;53.08;;;-1.90;99.90;;;;;;5053352;28;20541;-71
2022/12/13 02:07:58;;;;;;;84.07;56.47;;;-1.90;99.90;;;;;;4978839;28;20475;-72
2022/12/13 02:10:25;;;;;;;84.38;55.47;;;-1.90;99.90;;;;;;4974947;28;20043;-73
2022/12/13 02:12:51;;;;;;;80.95;52.05;;;-1.90;99.90;;;;;;4974526;28;20038;-73
2022/12/13 02:15:18;;;;;;;79.95;50.40;;;-1.80;99.90;;;;;;4974608;28;20134;-72
2022/12/13 02:17:51;;;;;;;77.13;49.72;;;-1.80;99.90;;;;;;4978607;28;20042;-72
2022/12/13 02:20:41;;;;;;;79.50;53.40;;;-1.80;99.90;;;;;;4975130;28;20097;-72
2022/12/13 02:23:36;;;;;;;73.93;47.92;;;-1.80;99.90;;;;;;4968192;28;20152;-73
2022/12/13 02:26:10;;;;;;;71.07;45.85;;;-1.80;99.90;;;;;;4944020;28;20043;-73
2022/12/13 02:29:14;;;;;;;75.28;48.70;;;-1.70;99.90;;;;;;4955604;28;20031;-73
2022/12/13 02:32:07;;;;;;;72.10;49.63;;;-1.70;99.90;;;;;;4955235;29;20055;-73
2022/12/13 02:34:37;;;;;;;;;;;-1.80;99.90;;;;;;4956220;29;20102;-72
2022/12/13 02:37:14;;;;;;;67.22;48.72;;;-1.70;99.90;;;;;;4955624;28;19906;-74
2022/12/13 02:40:21;;;;;;;71.72;47.42;;;-1.80;99.90;;;;;;4955369;29;20134;-74
2022/12/13 02:43:09;;;;;;;71.45;47.50;;;-1.80;99.90;;;;;;4955453;29;20035;-73
2022/12/13 02:45:45;;;;;;;72.30;51.63;;;-1.80;99.90;;;;;;4982267;28;20038;-73
2022/12/13 02:48:14;;;;;;;70.95;48.85;;;-1.80;99.90;;;;;;4993919;28;20043;-74
2022/12/13 02:50:41;;;;;;;71.07;48.17;;;-1.80;99.90;;;;;;4994393;28;20058;-73
2022/12/13 02:53:10;;;;;;;65.93;45.72;;;-1.80;99.90;;;;;;4993496;28;20043;-74
2022/12/13 02:55:39;;;;;;;72.85;46.10;;;-1.90;99.90;;;;;;4976840;28;20542;-73
2022/12/13 02:58:05;;;;;;;72.80;47.13;;;-1.80;99.90;;;;;;4993737;28;20038;-72
2022/12/13 03:01:04;;;;;;;75.93;48.63;;;-1.80;99.90;;;;;;4993945;28;20112;-73
2022/12/13 03:03:41;;;;;;;84.22;49.72;;;-1.80;99.90;;;;;;4993901;28;20100;-72
2022/12/13 03:06:30;;;;;;;81.93;50.42;;;-1.80;99.90;;;;;;4994568;28;20030;-74
2022/12/13 03:09:23;;;;;;;81.15;52.20;;;-1.70;99.90;;;;;;5012582;28;20080;-74
2022/12/13 03:15:10;;;;;;;81.10;54.70;;;-1.80;99.90;;;;;;5031688;28;20041;-73
2022/12/13 03:17:54;;;;;;;90.30;61.08;;;-1.70;99.90;;;;;;5031659;28;20026;-73
2022/12/13 03:20:24;;;;;;;95.45;61.38;;;-1.70;99.90;;;;;;5032535;28;20566;-73
2022/12/13 03:22:51;;;;;;;100.85;64.65;;;-1.60;99.90;;;;;;5034284;28;20025;-73
2022/12/13 03:25:18;;;;;;;101.97;65.40;;;-1.60;99.90;;;;;;5034429;28;20067;-73
2022/12/13 03:27:44;;;;;;;106.82;64.95;;;-1.60;99.90;;;;;;5034065;28;20025;-72
2022/12/13 03:30:10;;;;;;;91.15;59.85;;;-1.60;99.90;;;;;;5034082;28;20041;-72
2022/12/13 03:32:36;;;;;;;89.68;59.03;;;-1.50;99.90;;;;;;5034152;28;20108;-72
2022/12/13 03:35:02;;;;;;;92.10;58.20;;;-1.60;99.90;;;;;;5027853;28;20151;-73
2022/12/13 03:37:29;;;;;;;84.15;55.88;;;-1.60;99.90;;;;;;5033163;28;20548;-73
2022/12/13 03:39:55;;;;;;;88.40;57.28;;;-1.60;99.90;;;;;;5033407;28;20152;-73
2022/12/13 03:42:21;;;;;;;95.10;60.05;;;-1.60;99.90;;;;;;5033965;28;20033;-73
2022/12/13 03:44:47;;;;;;;97.80;61.33;;;-1.60;99.90;;;;;;5034534;28;20021;-73
2022/12/13 03:47:13;;;;;;;84.40;56.65;;;-1.60;99.90;;;;;;5030819;28;20054;-73
2022/12/13 03:49:38;;;;;;;92.03;56.60;;;-1.70;99.90;;;;;;5034025;28;20022;-73
2022/12/13 03:52:04;;;;;;;88.07;54.83;;;-1.60;99.90;;;;;;5033698;28;20373;-74
2022/12/13 03:54:30;;;;;;;95.47;60.30;;;-1.50;99.90;;;;;;5033641;28;20021;-73
2022/12/13 03:56:56;;;;;;;103.78;62.00;;;-1.50;99.90;;;;;;5033405;28;20022;-73
2022/12/13 03:59:22;;;;;;;103.35;61.95;;;-1.50;99.90;;;;;;5033218;28;20025;-73
2022/12/13 04:01:48;;;;;;;96.30;58.75;;;-1.50;99.90;;;;;;5032687;28;20112;-74
2022/12/13 04:04:14;;;;;;;98.30;61.08;;;-1.40;99.90;;;;;;5033501;28;20056;-72
2022/12/13 04:06:40;;;;;;;98.25;60.08;;;-1.40;99.90;;;;;;5033300;28;20017;-73
2022/12/13 04:09:06;;;;;;;91.35;55.20;;;-1.30;99.90;;;;;;5033448;28;20021;-72
2022/12/13 04:14:16;;;;;;;84.18;54.58;;;-1.20;99.90;;;;;;5033088;28;20034;-72
2022/12/13 04:16:41;;;;;;;85.20;54.10;;;-1.30;99.90;;;;;;5029503;28;20029;-73
2022/12/13 04:19:07;;;;;;;90.10;54.83;;;-1.20;99.90;;;;;;5033247;28;20021;-72
2022/12/13 04:21:34;;;;;;;82.93;53.60;;;-1.20;99.90;;;;;;5033359;28;20068;-73
2022/12/13 04:24:00;;;;;;;83.90;53.67;;;-1.20;99.90;;;;;;5033045;28;20025;-73
2022/12/13 04:26:26;;;;;;;83.18;52.83;;;-1.20;99.90;;;;;;5032233;28;20099;-73
2022/12/13 04:28:51;;;;;;;83.20;52.65;;;-1.10;99.90;;;;;;5032694;28;20465;-73
2022/12/13 04:31:17;;;;;;;85.43;54.20;;;-1.10;99.90;;;;;;5032983;28;20030;-73
2022/12/13 04:33:43;;;;;;;87.93;57.65;;;-1.10;99.90;;;;;;5032881;28;20480;-73
2022/12/13 04:36:09;;;;;;;95.15;60.88;;;-1.20;99.90;;;;;;5031672;28;20071;-73
2022/12/13 04:38:35;;;;;;;97.13;60.40;;;-1.20;99.90;;;;;;5032579;28;20052;-73
2022/12/13 04:41:13;;;;;;;96.72;61.28;;;-1.20;99.90;;;;;;5032788;28;20017;-73
2022/12/13 04:43:40;;;;;;;90.95;58.15;;;-1.20;99.90;;;;;;5032791;28;20057;-74
2022/12/13 04:46:06;;;;;;;80.95;52.17;;;-1.10;99.90;;;;;;5032754;28;20389;-73
2022/12/13 04:48:33;;;;;;;81.82;52.67;;;-1.10;99.90;;;;;;5032960;28;20021;-74
2022/12/13 04:51:00;;;;;;;82.55;53.33;;;-1.10;99.90;;;;;;5032607;28;20033;-74
2022/12/13 04:53:26;;;;;;;70.25;48.40;;;-1.00;99.90;;;;;;5032649;28;20040;-73
2022/12/13 04:55:52;;;;;;;70.53;48.13;;;-1.00;99.90;;;;;;5032513;28;20032;-74
2022/12/13 04:58:18;;;;;;;66.45;45.08;;;-1.00;99.90;;;;;;5033008;28;20017;-74
2022/12/13 05:00:44;;;;;;;74.32;46.33;;;-1.00;99.90;;;;;;5032148;28;20026;-74
2022/12/13 05:03:10;;;;;;;73.55;46.03;;;-0.90;99.90;;;;;;5032314;28;20029;-73
2022/12/13 05:05:40;;;;;;;62.47;40.17;;;-1.00;99.90;;;;;;5032825;28;20021;-72
2022/12/13 05:08:07;;;;;;;58.85;38.45;;;-0.90;99.90;;;;;;5032661;28;20059;-72
2022/12/13 05:10:34;;;;;;;59.13;37.00;;;-0.90;99.90;;;;;;5032509;28;20030;-73
2022/12/13 05:13:00;;;;;;;64.60;40.17;;;-0.90;99.90;;;;;;5031526;28;20112;-73
2022/12/13 05:15:26;;;;;;;68.40;41.85;;;-0.90;99.90;;;;;;5028517;28;20041;-73
2022/12/13 05:17:52;;;;;;;79.72;49.13;;;-0.90;99.90;;;;;;5023315;28;20112;-73
2022/12/13 05:20:18;;;;;;;82.20;47.20;;;-0.90;99.90;;;;;;5032376;28;20159;-72
2022/12/13 05:22:44;;;;;;;90.45;52.80;;;-0.90;99.90;;;;;;5028563;28;20029;-73
2022/12/13 05:25:10;;;;;;;81.55;50.85;;;-0.90;99.90;;;;;;5032459;28;20412;-75
2022/12/13 05:27:36;;;;;;;79.68;49.40;;;-0.90;99.90;;;;;;5032298;28;20032;-72
2022/12/13 05:30:02;;;;;;;76.57;49.70;;;-0.90;99.90;;;;;;5032189;28;20407;-72
2022/12/13 05:32:32;;;;;;;80.85;48.10;;;-0.90;99.90;;;;;;5032398;28;20048;-73
2022/12/13 05:34:58;;;;;;;80.90;48.40;;;-0.80;99.90;;;;;;5028775;28;20018;-73
2022/12/13 05:37:24;;;;;;;71.55;48.05;;;-0.90;99.90;;;;;;5032095;28;20417;-73
2022/12/13 05:39:49;;;;;;;76.63;48.35;;;-0.80;99.90;;;;;;5031941;28;20046;-74
2022/12/13 05:42:15;;;;;;;71.43;43.67;;;-0.80;99.90;;;;;;5032624;28;20032;-73
2022/12/13 05:44:41;;;;;;;74.40;47.47;;;-0.80;99.90;;;;;;5032054;28;20492;-73
2022/12/13 05:47:07;;;;;;;86.93;51.88;;;-0.80;99.90;;;;;;5032084;28;20056;-73
2022/12/13 05:49:33;;;;;;;109.55;60.53;;;-0.80;99.90;;;;;;5032080;28;20021;-74
2022/12/13 05:51:58;;;;;;;84.63;50.10;;;-0.80;99.90;;;;;;5028157;28;20025;-73
2022/12/13 05:54:24;;;;;;;100.28;50.88;;;-0.90;99.90;;;;;;5032256;28;20033;-74
2022/12/13 05:56:50;;;;;;;73.35;42.28;;;-0.80;99.90;;;;;;5031944;28;20522;-74
2022/12/13 05:59:16;;;;;;;70.03;42.50;;;-0.80;99.90;;;;;;5032077;28;20120;-74
2022/12/13 06:01:42;;;;;;;67.75;42.25;;;-0.80;99.90;;;;;;5031838;28;20029;-74
2022/12/13 06:04:08;;;;;;;70.80;46.13;;;-0.80;99.90;;;;;;5031608;28;20408;-74
2022/12/13 06:06:34;;;;;;;77.32;49.63;;;-0.80;99.90;;;;;;5032222;28;20167;-74
2022/12/13 06:09:00;;;;;;;72.50;44.60;;;-0.80;99.90;;;;;;5031873;28;20602;-74
2022/12/13 06:11:26;;;;;;;69.55;44.67;;;-0.80;99.90;;;;;;5031889;28;20033;-74
2022/12/13 06:13:52;;;;;;;78.82;45.50;;;-0.80;99.90;;;;;;5031645;28;20381;-74
2022/12/13 06:16:17;;;;;;;73.85;45.55;;;-0.80;99.90;;;;;;5032283;28;20029;-74
2022/12/13 06:18:43;;;;;;;67.90;43.80;;;-0.90;99.90;;;;;;5031856;28;20024;-74
2022/12/13 06:21:09;;;;;;;77.45;48.38;;;-0.90;99.90;;;;;;5031897;28;20021;-73
2022/12/13 06:23:35;;;;;;;69.57;43.08;;;-0.90;99.90;;;;;;5031929;28;20032;-74
2022/12/13 06:26:03;;;;;;;74.65;46.05;;;-0.90;99.90;;;;;;5031816;28;20030;-74
2022/12/13 06:28:29;;;;;;;95.78;54.83;;;-0.90;99.90;;;;;;5032586;28;20079;-73
2022/12/13 06:30:58;;;;;;;96.18;55.80;;;-0.90;99.90;;;;;;5035380;28;20429;-73
2022/12/13 06:33:24;;;;;;;95.75;59.20;;;-0.90;99.90;;;;;;5035408;28;20048;-74
2022/12/13 06:35:51;;;;;;;93.05;57.38;;;-0.90;99.90;;;;;;5035156;28;20461;-74
2022/12/13 06:38:17;;;;;;;96.43;56.72;;;-0.80;99.90;;;;;;5035053;28;20116;-74
2022/12/13 06:40:43;;;;;;;94.25;59.28;;;-0.80;99.90;;;;;;5034962;28;20116;-74
2022/12/13 06:43:09;;;;;;;86.57;54.47;;;-0.70;99.90;;;;;;5035190;28;20116;-74
2022/12/13 06:45:39;;;;;;;82.78;48.58;;;-0.70;99.90;;;;;;5034871;28;20021;-74
2022/12/13 06:48:05;;;;;;;93.53;52.35;;;-0.70;99.90;;;;;;5034936;28;20401;-73
2022/12/13 06:50:33;;;;;;;88.68;54.85;;;-0.80;99.90;;;;;;5035017;28;20049;-74
2022/12/13 06:52:59;;;;;;;110.75;60.95;;;-0.70;99.90;;;;;;5034961;28;20022;-73
2022/12/13 06:55:24;;;;;;;128.05;72.55;;;-0.60;99.90;;;;;;5034740;28;20117;-73
2022/12/13 06:57:50;;;;;;;126.93;71.63;;;-0.60;99.90;;;;;;5034722;28;20039;-74
2022/12/13 07:00:18;;;;;;;120.30;72.18;;;-0.50;99.90;;;;;;5035243;28;20052;-74
2022/12/13 07:02:51;;;;;;;117.30;65.03;;;-0.40;99.90;;;;;;5035268;28;20473;-73
2022/12/13 07:05:17;;;;;;;103.88;61.20;;;-0.40;99.90;;;;;;5035394;28;20593;-73
2022/12/13 07:07:43;;;;;;;102.45;62.97;;;-0.30;99.90;;;;;;5035271;28;20034;-73
2022/12/13 07:10:09;;;;;;;106.57;61.67;;;-0.20;99.90;;;;;;5035125;28;20037;-74
2022/12/13 07:12:35;;;;;;;95.45;60.15;;;-0.10;99.90;;;;;;5035056;28;20048;-73
2022/12/13 07:15:00;;;;;;;97.55;59.60;;;-0.10;99.90;;;;;;5035012;28;20088;-73
2022/12/13 07:17:26;;;;;;;120.75;61.58;;;-0.20;99.90;;;;;;5035105;28;20385;-74
2022/12/13 07:19:52;;;;;;;109.70;59.75;;;-0.20;99.90;;;;;;5034908;28;20033;-74
2022/12/13 07:22:18;;;;;;;117.90;72.07;;;-0.10;99.90;;;;;;5035177;28;20026;-74
2022/12/13 07:24:44;;;;;;;123.43;74.65;;;-0.20;99.90;;;;;;5034745;28;20036;-73
2022/12/13 07:27:09;;;;;;;119.57;73.55;;;-0.10;99.90;;;;;;5034939;28;20428;-74
2022/12/13 07:29:36;;;;;;;129.35;70.38;;;0.00;99.90;;;;;;5021402;28;20530;-74
2022/12/13 07:32:02;;;;;;;122.10;68.38;;;0.10;99.90;;;;;;5034996;28;20026;-74
2022/12/13 07:34:29;;;;;;;91.10;56.72;;;0.20;99.90;;;;;;5034668;28;20049;-74
2022/12/13 07:36:54;;;;;;;81.45;52.88;;;0.30;99.90;;;;;;5034862;28;20028;-73
2022/12/13 07:39:24;;;;;;;99.97;58.53;;;0.40;99.90;;;;;;5034390;28;20045;-74
2022/12/13 07:41:55;;;;;;;117.45;68.65;;;0.50;99.90;;;;;;5033984;28;20029;-74
2022/12/13 07:44:21;;;;;;;141.15;90.95;;;0.40;99.90;;;;;;5034683;28;20037;-74
2022/12/13 07:46:47;;;;;;;149.85;94.65;;;0.40;99.90;;;;;;5034657;28;20091;-74
2022/12/13 07:49:13;;;;;;;146.57;90.75;;;0.50;99.90;;;;;;5034440;28;20104;-74
2022/12/13 07:51:39;;;;;;;116.78;73.88;;;0.60;99.90;;;;;;5034544;28;20079;-74
2022/12/13 07:54:07;;;;;;;119.65;75.35;;;0.60;99.90;;;;;;5034067;28;20041;-74
2022/12/13 07:56:34;;;;;;;136.25;82.95;;;0.70;99.90;;;;;;5034467;28;20051;-74
2022/12/13 07:59:00;;;;;;;112.95;71.45;;;0.80;99.90;;;;;;5034068;28;20021;-74
2022/12/13 08:01:27;;;;;;;88.85;54.47;;;0.80;99.90;;;;;;5033371;28;20369;-74
2022/12/13 08:03:53;;;;;;;71.95;44.38;;;0.80;99.90;;;;;;5033696;28;20033;-74
2022/12/13 08:06:19;;;;;;;64.78;41.60;;;0.80;99.90;;;;;;5034198;28;20028;-74
2022/12/13 08:08:45;;;;;;;61.53;38.15;;;0.70;99.90;;;;;;5033966;28;20029;-74
2022/12/13 08:11:14;;;;;;;56.17;34.33;;;0.50;99.90;;;;;;5034174;28;20022;-74
2022/12/13 08:13:40;;;;;;;59.28;34.47;;;0.50;99.90;;;;;;5033944;28;20034;-74
2022/12/13 08:16:09;;;;;;;82.30;37.00;;;0.50;99.90;;;;;;5045451;28;20069;-74
2022/12/13 08:18:34;;;;;;;76.80;41.40;;;0.50;99.90;;;;;;5035611;28;20101;-74
2022/12/13 08:21:03;;;;;;;72.72;38.85;;;0.60;99.90;;;;;;5033999;28;20048;-74
2022/12/13 08:23:30;;;;;;;78.45;44.90;;;0.70;99.90;;;;;;5033795;28;20136;-74
2022/12/13 08:25:57;;;;;;;63.55;39.10;;;0.80;99.90;;;;;;5033925;28;20032;-74
2022/12/13 08:28:23;;;;;;;70.35;42.63;;;0.90;99.90;;;;;;5033867;28;20018;-74
2022/12/13 08:30:50;;;;;;;74.72;41.33;;;1.00;99.90;;;;;;5033637;28;20112;-74
2022/12/13 08:33:16;;;;;;;79.45;44.13;;;1.10;99.90;;;;;;5032724;28;20040;-74
2022/12/13 08:35:42;;;;;;;64.43;37.70;;;1.00;99.90;;;;;;5033559;28;20025;-74
2022/12/13 08:38:08;;;;;;;66.88;37.45;;;0.90;99.90;;;;;;5033123;28;20136;-74
2022/12/13 08:40:35;;;;;;;75.63;42.25;;;0.70;99.90;;;;;;5033328;28;20053;-75
2022/12/13 08:43:01;;;;;;;81.85;43.05;;;0.70;99.90;;;;;;5033399;28;20472;-74
2022/12/13 08:45:27;;;;;;;60.83;35.50;;;0.80;99.90;;;;;;5033494;28;20104;-75
2022/12/13 08:47:55;;;;;;;49.28;32.85;;;0.60;99.90;;;;;;5033264;28;20033;-74
2022/12/13 08:50:21;;;;;;;52.90;34.38;;;0.60;99.90;;;;;;5033254;28;20029;-74
2022/12/13 08:52:47;;;;;;;58.15;35.33;;;0.70;99.90;;;;;;5020084;28;20030;-74
2022/12/13 08:55:14;;;;;;;52.85;33.95;;;0.90;99.90;;;;;;5033288;28;21210;-74
2022/12/13 08:57:41;;;;;;;47.40;31.35;;;1.10;99.90;;;;;;5020279;28;20030;-74
2022/12/13 09:00:13;;;;;;;46.35;31.33;;;1.00;99.90;;;;;;5032288;28;20108;-74
2022/12/13 09:02:39;;;;;;;44.78;28.80;;;0.90;99.90;;;;;;5033393;28;20026;-74
2022/12/13 09:05:06;;;;;;;44.15;30.50;;;1.00;99.90;;;;;;5033096;28;20084;-74
2022/12/13 09:07:34;;;;;;;49.83;29.48;;;1.00;99.90;;;;;;5033128;28;20022;-74
2022/12/13 09:10:00;;;;;;;56.15;35.55;;;1.00;99.90;;;;;;5032584;28;20022;-74
2022/12/13 09:12:26;;;;;;;61.45;39.05;;;1.00;99.90;;;;;;5033165;28;20037;-74
2022/12/13 09:14:53;;;;;;;57.60;34.88;;;1.10;99.90;;;;;;5032825;28;20028;-74
2022/12/13 09:17:19;;;;;;;56.80;31.55;;;1.00;99.90;;;;;;5033478;28;20093;-73
2022/12/13 09:19:45;;;;;;;50.50;30.52;;;1.10;99.90;;;;;;5032796;28;20075;-74
2022/12/13 09:22:11;;;;;;;53.90;34.30;;;1.10;99.90;;;;;;5032815;28;20025;-74
2022/12/13 09:24:37;;;;;;;57.28;35.10;;;1.20;99.90;;;;;;5032890;28;20072;-74
2022/12/13 09:27:06;;;;;;;56.45;36.97;;;1.20;99.90;;;;;;5032541;28;20029;-74
2022/12/13 09:29:35;;;;;;;50.13;30.80;;;1.30;99.90;;;;;;5032588;28;20116;-74
2022/12/13 09:32:01;;;;;;;51.83;31.90;;;1.20;99.90;;;;;;5032810;28;20480;-73
2022/12/13 09:34:27;;;;;;;57.22;37.30;;;1.20;99.90;;;;;;5032598;28;20035;-73
2022/12/13 09:36:52;;;;;;;58.97;36.75;;;1.20;99.90;;;;;;5032752;28;20392;-73
2022/12/13 09:39:18;;;;;;;88.60;56.38;;;1.30;99.90;;;;;;5032142;28;20064;-74
2022/12/13 09:41:50;;;;;;;96.32;58.75;;;1.40;99.90;;;;;;5031066;28;20087;-73
2022/12/13 09:44:28;;;;;;;78.50;49.80;;;1.50;99.90;;;;;;5032702;28;20025;-74
2022/12/13 09:46:55;;;;;;;76.90;52.45;;;1.50;99.90;;;;;;5032469;28;20681;-73
2022/12/13 09:49:29;;;;;;;77.32;46.97;;;1.50;99.90;;;;;;5032777;28;20017;-74
2022/12/13 09:51:57;;;;;;;80.70;53.17;;;1.50;99.90;;;;;;5029128;28;20022;-73
2022/12/13 09:54:24;;;;;;;82.47;49.95;;;1.70;99.90;;;;;;5032400;28;20048;-74
2022/12/13 09:56:52;;;;;;;65.15;42.22;;;1.80;99.90;;;;;;5019434;28;20443;-74
2022/12/13 09:59:31;;;;;;;51.03;33.80;;;1.90;99.90;;;;;;5032100;28;20438;-73
2022/12/13 10:02:10;;;;;;;60.72;38.70;;;2.00;99.90;;;;;;5030036;28;20033;-73
2022/12/13 10:04:36;;;;;;;43.60;26.48;;;2.20;99.90;;;;;;5035193;28;20496;-73
2022/12/13 10:07:12;;;;;;;37.30;24.65;;;2.00;99.90;;;;;;5036287;28;20018;-73
2022/12/13 10:09:38;;;;;;;39.90;24.52;;;2.00;99.90;;;;;;5035995;28;20040;-73
2022/12/13 10:12:04;;;;;;;42.55;28.33;;;1.80;99.90;;;;;;5035305;28;20021;-74
2022/12/13 10:14:39;;;;;;;50.03;31.00;;;1.90;99.90;;;;;;5068370;28;20163;-73
2022/12/13 10:17:08;;;;;;;46.92;28.10;;;2.20;99.90;;;;;;5035728;28;20420;-73
2022/12/13 10:19:35;;;;;;;38.30;22.33;;;2.40;99.90;;;;;;5035313;28;20025;-73
2022/12/13 10:22:03;;;;;;;39.13;24.13;;;2.30;99.90;;;;;;5035452;28;20025;-73
2022/12/13 10:24:47;;;;;;;31.98;21.58;;;2.30;99.90;;;;;;5035772;28;20033;-73
2022/12/13 10:27:17;;;;;;;46.97;29.25;;;2.50;99.90;;;;;;5035810;28;20021;-73
2022/12/13 10:30:12;;;;;;;47.75;29.45;;;2.60;99.90;;;;;;5035522;28;20075;-73
2022/12/13 10:32:55;;;;;;;37.13;23.25;;;2.60;99.90;;;;;;5035520;28;20033;-73
2022/12/13 10:35:40;;;;;;;35.95;23.60;;;2.50;99.90;;;;;;5025260;28;20037;-73
2022/12/13 10:38:12;;;;;;;38.72;23.73;;;2.80;99.90;;;;;;5035124;28;20495;-73
2022/12/13 10:40:45;;;;;;;29.70;18.10;;;2.90;99.90;;;;;;5035681;28;20484;-72
2022/12/13 10:43:22;;;;;;;35.53;20.83;;;2.80;99.90;;;;;;5035671;28;20155;-73
2022/12/13 10:45:55;;;;;;;31.38;19.20;;;2.90;99.90;;;;;;5035226;28;20029;-73
2022/12/13 10:48:32;;;;;;;29.48;18.23;;;2.90;99.90;;;;;;5033044;28;20044;-74
2022/12/13 10:50:59;;;;;;;25.05;14.93;;;2.90;99.90;;;;;;5034731;28;20030;-72
2022/12/13 10:53:32;;;;;;;25.65;15.07;;;2.90;99.90;;;;;;5035371;28;20040;-73
2022/12/13 10:55:59;;;;;;;33.83;20.48;;;2.80;99.90;;;;;;5035197;28;20072;-75
2022/12/13 10:58:40;;;;;;;29.42;16.33;;;3.00;99.90;;;;;;5035157;28;20500;-74
2022/12/13 11:01:19;;;;;;;32.97;18.90;;;3.00;99.90;;;;;;5024752;28;20025;-75
2022/12/13 11:04:03;;;;;;;24.30;15.05;;;3.10;99.90;;;;;;5036778;28;20075;-74
2022/12/13 11:06:43;;;;;;;37.20;20.40;;;3.10;99.90;;;;;;5062753;28;20040;-75
2022/12/13 11:09:26;;;;;;;26.98;17.05;;;3.10;99.90;;;;;;5022621;28;20032;-75
2022/12/13 11:11:54;;;;;;;36.38;21.50;;;3.00;99.90;;;;;;5034002;28;20021;-76
2022/12/13 11:14:27;;;;;;;28.40;16.45;;;3.10;99.90;;;;;;5033574;28;20033;-74
2022/12/13 11:16:58;;;;;;;22.65;14.43;;;3.00;99.90;;;;;;5027598;28;20049;-74
2022/12/13 11:19:24;;;;;;;22.52;13.82;;;3.00;99.90;;;;;;5027063;28;20428;-74
2022/12/13 11:21:53;;;;;;;28.00;15.10;;;3.10;99.90;;;;;;5034942;28;20018;-75
2022/12/13 11:24:35;;;;;;;31.73;17.05;;;3.20;99.90;;;;;;5068899;28;20052;-74
2022/12/13 11:27:22;;;;;;;26.67;15.32;;;3.30;99.90;;;;;;5029025;28;20037;-75
2022/12/13 11:30:19;;;;;;;25.75;14.32;;;3.30;99.90;;;;;;5033221;28;20045;-75
2022/12/13 11:32:53;;;;;;;30.10;17.02;;;3.40;99.90;;;;;;5034749;28;20037;-74
2022/12/13 11:35:31;;;;;;;26.58;14.73;;;3.50;99.90;;;;;;5028592;28;20031;-74
2022/12/13 11:38:21;;;;;;;26.02;14.95;;;3.50;99.90;;;;;;5034537;28;20021;-74
2022/12/13 11:40:57;;;;;;;25.85;14.88;;;3.50;99.90;;;;;;5030090;28;20145;-74
2022/12/13 11:43:32;;;;;;;22.73;12.15;;;3.30;99.90;;;;;;5026606;28;20409;-74
2022/12/13 11:46:04;;;;;;;21.90;14.27;;;2.90;99.90;;;;;;5032827;28;20021;-74
2022/12/13 11:48:43;;;;;;;20.85;12.23;;;2.90;99.90;;;;;;5034352;28;20087;-75
2022/12/13 11:51:14;;;;;;;23.33;12.70;;;2.80;99.90;;;;;;5034322;28;20026;-75
2022/12/13 11:53:56;;;;;;;21.70;12.20;;;2.70;99.90;;;;;;5032749;28;20064;-75
2022/12/13 11:56:38;;;;;;;26.80;15.40;;;2.80;99.90;;;;;;5034245;28;20427;-72
2022/12/13 11:59:29;;;;;;;30.20;17.65;;;2.90;99.90;;;;;;5034406;28;20033;-75
2022/12/13 12:02:00;;;;;;;35.10;18.15;;;3.00;99.90;;;;;;5035208;28;20033;-73
2022/12/13 12:04:33;;;;;;;28.02;16.15;;;3.10;99.90;;;;;;5034020;28;20517;-73
2022/12/13 12:07:12;;;;;;;25.95;14.68;;;3.20;99.90;;;;;;5036500;28;20480;-75
2022/12/13 12:09:46;;;;;;;41.58;19.52;;;3.10;99.90;;;;;;5035731;28;20052;-75
2022/12/13 12:12:22;;;;;;;28.80;15.02;;;3.20;99.90;;;;;;5036715;28;20031;-76
2022/12/13 12:14:58;;;;;;;26.95;14.55;;;3.10;99.90;;;;;;5034080;28;20033;-75
2022/12/13 12:17:25;;;;;;;23.67;12.45;;;3.00;99.90;;;;;;5023833;28;20036;-75
2022/12/13 12:19:53;;;;;;;21.20;12.15;;;3.00;99.90;;;;;;5033580;28;20034;-76
2022/12/13 12:22:39;;;;;;;23.52;13.40;;;3.00;99.90;;;;;;5035124;28;20094;-73
2022/12/13 12:25:27;;;;;;;19.52;12.18;;;3.00;99.90;;;;;;5037330;28;20028;-74
2022/12/13 12:28:12;;;;;;;28.33;16.15;;;3.00;99.90;;;;;;5032290;28;20420;-75
2022/12/13 12:31:02;;;;;;;32.50;17.50;;;3.10;99.90;;;;;;5032629;28;20068;-75
2022/12/13 12:34:01;;;;;;;34.40;20.85;;;3.10;99.90;;;;;;5033556;28;20056;-75
2022/12/13 12:36:44;;;;;;;34.42;20.77;;;3.20;99.90;;;;;;5032767;28;20179;-75
2022/12/13 12:39:18;;;;;;;33.90;21.47;;;3.30;99.90;;;;;;5033735;28;20386;-76
2022/12/13 12:42:11;;;;;;;36.13;20.98;;;3.20;99.90;;;;;;5028703;28;20349;-74
2022/12/13 12:44:47;;;;;;;31.10;17.30;;;3.20;99.90;;;;;;5029303;28;20049;-73
2022/12/13 12:47:40;;;;;;;27.63;17.35;;;3.10;99.90;;;;;;5031318;28;20123;-75
2022/12/13 12:50:24;;;;;;;30.92;17.27;;;3.00;99.90;;;;;;5031132;28;20032;-74